Portada
METAR-TAF:

METAR-TAF

Aeroports :

Independence, Kansas, Estats Units d'Amèrica

latitud: 37-09-30N, longitud: 095-46-42W, altitud: 251 m

Observació

L'informe es va fer fa 32 minuts, a les 14:35 UTC
Vent 9 kt del Sud
Temperatura 7°C
Humitat 70%
Pressió 1011 hPa
Visibilitat: 16.1 km
Cel cobert a una alçada de 9500 ft

METAR: KIDP 181435Z AUTO 19009KT 10SM OVC095 07/02 A2986 RMK AO2 T00730017

Hora: 09:07 (15:07 UTC)


TAF: manca

Observacions i pronòstics meteorològics de més de 4000 aeroports (METAR i TAF).

Les estacions disponibles són els punts grocs i vermells al mapa.

Posi el ratolí al punt desitjat per veure el nom de l'estació.

Feu clic per veure les observacions i els pronòstics meteorològics.

Per canviar el mapa: feu clic els botons verds amb una creu de color negre per apropar; al botó verd amb un guió per allunyar la imatge; o en les fletxes verdes per a mapes adjacents.


METAR-TAF: